createdAt,value
2023-01-08T00:00:13.652Z,65.40
2023-01-08T00:01:13.676Z,65.12
2023-01-08T00:02:13.681Z,65.12
2023-01-08T00:03:13.796Z,65.12
2023-01-08T00:04:13.724Z,65.02
2023-01-08T00:05:13.703Z,65.59
2023-01-08T00:06:13.698Z,65.21
2023-01-08T00:07:13.720Z,65.40
2023-01-08T00:08:13.702Z,65.59
2023-01-08T00:09:13.709Z,65.78
2023-01-08T00:10:13.710Z,66.16
2023-01-08T00:11:13.732Z,66.06
2023-01-08T00:12:13.723Z,66.35
2023-01-08T00:13:13.735Z,66.25
2023-01-08T00:14:13.849Z,66.25
2023-01-08T00:15:13.743Z,65.97
2023-01-08T00:16:13.857Z,66.35
2023-01-08T00:17:13.756Z,66.06
2023-01-08T00:18:13.777Z,66.06
2023-01-08T00:19:13.774Z,66.35
2023-01-08T00:20:13.777Z,66.06
2023-01-08T00:21:13.783Z,65.88
2023-01-08T00:22:13.781Z,65.50
2023-01-08T00:23:13.790Z,65.50
2023-01-08T00:24:13.795Z,65.97
2023-01-08T00:25:13.813Z,66.35
2023-01-08T00:26:13.812Z,66.44
2023-01-08T00:27:13.835Z,65.97
2023-01-08T00:28:13.816Z,65.88
2023-01-08T00:29:13.830Z,65.78
2023-01-08T00:30:13.946Z,65.97
2023-01-08T00:31:13.882Z,66.06
2023-01-08T00:32:13.854Z,65.78
2023-01-08T00:33:13.850Z,65.40
2023-01-08T00:34:13.848Z,64.83
2023-01-08T00:35:13.860Z,64.83
2023-01-08T00:36:13.896Z,64.45
2023-01-08T00:37:13.873Z,63.42
2023-01-08T00:38:13.877Z,62.75
2023-01-08T00:39:13.884Z,63.51
2023-01-08T00:40:13.899Z,63.60
2023-01-08T00:41:13.902Z,63.98
2023-01-08T00:42:13.898Z,64.45
2023-01-08T00:43:13.910Z,64.36
2023-01-08T00:44:13.912Z,64.74
2023-01-08T00:45:13.918Z,64.83
2023-01-08T00:46:14.223Z,65.28
2023-01-08T00:47:13.935Z,65.09
2023-01-08T00:48:13.932Z,65.12
2023-01-08T00:49:13.954Z,64.90
2023-01-08T00:50:13.962Z,64.42
2023-01-08T00:51:13.968Z,64.80
2023-01-08T00:52:13.958Z,65.21
2023-01-08T00:53:13.966Z,64.93
2023-01-08T00:54:13.975Z,64.80
2023-01-08T00:55:13.988Z,64.80
2023-01-08T00:56:13.978Z,64.42
2023-01-08T00:57:13.988Z,64.42
2023-01-08T00:58:13.993Z,64.45
2023-01-08T00:59:14.018Z,64.64
2023-01-08T01:00:14.004Z,63.98
2023-01-08T01:01:14.221Z,64.07
2023-01-08T01:02:14.189Z,64.45
2023-01-08T01:03:14.021Z,64.17
2023-01-08T01:04:14.052Z,64.36
2023-01-08T01:05:14.041Z,64.45
2023-01-08T01:06:14.065Z,64.55
2023-01-08T01:07:14.045Z,64.61
2023-01-08T01:08:14.045Z,64.33
2023-01-08T01:09:14.061Z,64.71
2023-01-08T01:10:14.060Z,64.71
2023-01-08T01:11:14.066Z,65.09
2023-01-08T01:12:14.080Z,64.90
2023-01-08T01:13:14.079Z,64.52
2023-01-08T01:14:14.083Z,64.90
2023-01-08T01:15:14.088Z,65.56
2023-01-08T01:16:14.115Z,66.31
2023-01-08T01:17:14.100Z,66.69
2023-01-08T01:18:14.124Z,66.98
2023-01-08T01:19:14.114Z,67.45
2023-01-08T01:20:14.112Z,67.26
2023-01-08T01:21:14.129Z,67.45
2023-01-08T01:22:14.135Z,66.88
2023-01-08T01:23:14.133Z,67.26
2023-01-08T01:24:14.145Z,67.36
2023-01-08T01:25:14.143Z,67.26
2023-01-08T01:26:14.151Z,67.26
2023-01-08T01:27:14.169Z,66.60
2023-01-08T01:28:14.158Z,66.79
2023-01-08T01:29:14.164Z,66.22
2023-01-08T01:30:14.163Z,66.22
2023-01-08T01:31:14.262Z,66.03
2023-01-08T01:32:14.178Z,65.94
2023-01-08T01:33:14.219Z,65.84
2023-01-08T01:34:14.315Z,66.13
2023-01-08T01:35:14.199Z,66.16
2023-01-08T01:36:14.212Z,66.16
2023-01-08T01:37:14.224Z,65.88
2023-01-08T01:38:14.220Z,65.97
2023-01-08T01:39:14.218Z,65.12
2023-01-08T01:40:14.222Z,65.02
2023-01-08T01:41:14.230Z,65.50
2023-01-08T01:42:14.232Z,65.18
2023-01-08T01:43:14.267Z,65.37
2023-01-08T01:44:14.249Z,65.75
2023-01-08T01:45:14.250Z,65.84
2023-01-08T01:46:14.295Z,65.84
2023-01-08T01:47:14.271Z,65.75
2023-01-08T01:48:14.268Z,65.47
2023-01-08T01:49:14.280Z,65.75
2023-01-08T01:50:14.407Z,66.03
2023-01-08T01:51:14.284Z,66.13
2023-01-08T01:52:14.287Z,65.94
2023-01-08T01:53:14.313Z,66.13
2023-01-08T01:54:14.297Z,66.69
2023-01-08T01:55:14.334Z,66.69
2023-01-08T01:56:14.314Z,66.31
2023-01-08T01:57:14.318Z,66.41
2023-01-08T01:58:14.321Z,67.17
2023-01-08T01:59:14.335Z,67.17
2023-01-08T02:00:14.332Z,66.88
2023-01-08T02:01:14.483Z,66.98
2023-01-08T02:02:14.514Z,67.17
2023-01-08T02:03:14.349Z,67.17
2023-01-08T02:04:14.495Z,66.88
2023-01-08T02:05:14.362Z,67.26
2023-01-08T02:06:14.478Z,67.45
2023-01-08T02:07:14.374Z,67.55
2023-01-08T02:08:14.388Z,67.83
2023-01-08T02:09:14.404Z,68.12
2023-01-08T02:10:14.386Z,68.02
2023-01-08T02:11:14.393Z,68.12
2023-01-08T02:12:14.411Z,67.55
2023-01-08T02:13:14.413Z,67.36
2023-01-08T02:14:14.411Z,67.36
2023-01-08T02:15:14.435Z,66.22
2023-01-08T02:16:14.520Z,64.61
2023-01-08T02:17:14.436Z,63.67
2023-01-08T02:18:14.432Z,64.61
2023-01-08T02:19:14.440Z,64.71
2023-01-08T02:20:14.444Z,65.37
2023-01-08T02:21:14.458Z,65.09
2023-01-08T02:22:14.573Z,65.28
2023-01-08T02:23:14.470Z,64.90
2023-01-08T02:24:14.460Z,65.37
2023-01-08T02:25:14.471Z,64.99
2023-01-08T02:26:14.478Z,65.94
2023-01-08T02:27:14.499Z,65.84
2023-01-08T02:28:14.481Z,65.84
2023-01-08T02:29:14.489Z,66.31
2023-01-08T02:30:14.489Z,66.31
2023-01-08T02:31:14.574Z,66.31
2023-01-08T02:32:14.503Z,66.13
2023-01-08T02:33:14.510Z,65.94
2023-01-08T02:34:14.517Z,65.88
2023-01-08T02:35:14.542Z,65.97
2023-01-08T02:36:14.527Z,66.31
2023-01-08T02:37:14.538Z,66.25
2023-01-08T02:38:14.642Z,66.44
2023-01-08T02:39:14.557Z,66.82
2023-01-08T02:40:14.551Z,66.73
2023-01-08T02:41:14.577Z,67.20
2023-01-08T02:42:14.556Z,66.63
2023-01-08T02:43:14.576Z,66.92
2023-01-08T02:44:14.570Z,66.53
2023-01-08T02:45:14.573Z,65.97
2023-01-08T02:46:14.611Z,65.88
2023-01-08T02:47:14.584Z,65.97
2023-01-08T02:48:14.594Z,65.88
2023-01-08T02:49:14.594Z,65.88
2023-01-08T02:50:14.599Z,65.69
2023-01-08T02:51:14.609Z,66.35
2023-01-08T02:52:14.613Z,66.35
2023-01-08T02:53:14.638Z,66.69
2023-01-08T02:54:14.746Z,66.88
2023-01-08T02:55:14.655Z,67.17
2023-01-08T02:56:14.636Z,67.26
2023-01-08T02:57:14.644Z,67.26
2023-01-08T02:58:14.636Z,67.64
2023-01-08T02:59:14.648Z,67.45
2023-01-08T03:00:14.659Z,67.74
2023-01-08T03:01:14.804Z,67.45
2023-01-08T03:02:14.981Z,67.45
2023-01-08T03:03:14.669Z,67.17
2023-01-08T03:04:14.755Z,67.45
2023-01-08T03:05:14.693Z,67.83
2023-01-08T03:06:14.686Z,68.12
2023-01-08T03:07:14.692Z,68.12
2023-01-08T03:08:14.706Z,67.83
2023-01-08T03:09:14.713Z,67.93
2023-01-08T03:10:14.831Z,68.21
2023-01-08T03:11:14.716Z,67.93
2023-01-08T03:12:14.714Z,67.93
2023-01-08T03:13:14.725Z,68.02
2023-01-08T03:14:14.727Z,68.40
2023-01-08T03:15:14.749Z,68.77
2023-01-08T03:16:14.750Z,68.77
2023-01-08T03:17:14.743Z,69.06
2023-01-08T03:18:14.746Z,69.44
2023-01-08T03:19:15.389Z,69.72
2023-01-08T03:20:14.763Z,70.10
2023-01-08T03:21:14.771Z,70.20
2023-01-08T03:22:14.772Z,70.20
2023-01-08T03:23:14.779Z,69.63
2023-01-08T03:24:14.776Z,69.15
2023-01-08T03:25:14.794Z,69.53
2023-01-08T03:26:15.025Z,68.68
2023-01-08T03:27:14.794Z,69.44
2023-01-08T03:28:14.815Z,68.96
2023-01-08T03:29:14.814Z,68.77
2023-01-08T03:30:14.818Z,69.25
2023-01-08T03:31:14.867Z,68.87
2023-01-08T03:32:14.818Z,69.15
2023-01-08T03:33:14.834Z,68.96
2023-01-08T03:34:14.842Z,68.77
2023-01-08T03:35:14.836Z,68.77
2023-01-08T03:36:14.841Z,69.53
2023-01-08T03:37:14.846Z,69.44
2023-01-08T03:38:14.851Z,69.44
2023-01-08T03:39:14.910Z,69.44
2023-01-08T03:40:14.861Z,70.01
2023-01-08T03:41:14.871Z,69.72
2023-01-08T03:42:14.981Z,70.10
2023-01-08T03:43:14.885Z,70.67
2023-01-08T03:44:14.896Z,71.61
2023-01-08T03:45:14.887Z,71.42
2023-01-08T03:46:15.042Z,71.61
2023-01-08T03:47:14.917Z,71.42
2023-01-08T03:48:14.905Z,71.42
2023-01-08T03:49:14.915Z,72.28
2023-01-08T03:50:14.915Z,72.94
2023-01-08T03:51:14.921Z,73.98
2023-01-08T03:52:14.918Z,73.79
2023-01-08T03:53:14.944Z,73.69
2023-01-08T03:54:14.930Z,73.69
2023-01-08T03:55:14.940Z,73.98
2023-01-08T03:56:14.943Z,73.60
2023-01-08T03:57:14.951Z,73.22
2023-01-08T03:58:14.969Z,73.03
2023-01-08T03:59:14.969Z,72.66
2023-01-08T04:00:14.973Z,72.28
2023-01-08T04:01:15.158Z,73.03
2023-01-08T04:02:15.160Z,72.85
2023-01-08T04:03:14.989Z,73.03
2023-01-08T04:04:15.041Z,72.94
2023-01-08T04:05:14.991Z,72.85
2023-01-08T04:06:14.990Z,73.41
2023-01-08T04:07:15.011Z,73.98
2023-01-08T04:08:15.024Z,74.45
2023-01-08T04:09:15.025Z,74.83
2023-01-08T04:10:15.011Z,75.02
2023-01-08T04:11:15.040Z,74.64
2023-01-08T04:12:15.023Z,74.26
2023-01-08T04:13:15.038Z,73.98
2023-01-08T04:14:15.152Z,74.26
2023-01-08T04:15:15.044Z,74.17
2023-01-08T04:16:15.110Z,74.36
2023-01-08T04:17:15.065Z,74.26
2023-01-08T04:18:15.069Z,74.45
2023-01-08T04:19:15.086Z,74.36
2023-01-08T04:20:15.070Z,74.26
2023-01-08T04:21:15.071Z,74.36
2023-01-08T04:22:15.081Z,74.36
2023-01-08T04:23:15.085Z,74.93
2023-01-08T04:24:15.088Z,74.45
2023-01-08T04:25:15.095Z,74.17
2023-01-08T04:26:15.117Z,74.36
2023-01-08T04:27:15.100Z,74.74
2023-01-08T04:28:15.115Z,73.98
2023-01-08T04:29:15.116Z,74.26
2023-01-08T04:30:15.241Z,74.55
2023-01-08T04:31:15.203Z,74.07
2023-01-08T04:32:15.129Z,74.07
2023-01-08T04:33:15.131Z,74.45
2023-01-08T04:34:15.138Z,73.98
2023-01-08T04:35:15.139Z,73.98
2023-01-08T04:36:15.147Z,73.88
2023-01-08T04:37:15.150Z,74.26
2023-01-08T04:38:15.158Z,73.60
2023-01-08T04:39:15.169Z,73.88
2023-01-08T04:40:15.185Z,72.56
2023-01-08T04:41:15.205Z,71.93
2023-01-08T04:42:15.179Z,71.90
2023-01-08T04:43:15.185Z,72.03
2023-01-08T04:44:15.192Z,71.46
2023-01-08T04:45:15.195Z,71.36
2023-01-08T04:46:15.410Z,70.42
2023-01-08T04:47:15.200Z,69.95
2023-01-08T04:48:15.218Z,70.42
2023-01-08T04:49:15.217Z,70.79
2023-01-08T04:50:15.226Z,70.23
2023-01-08T04:51:15.222Z,70.32
2023-01-08T04:52:15.233Z,69.95
2023-01-08T04:53:15.238Z,69.85
2023-01-08T04:54:15.259Z,69.76
2023-01-08T04:55:15.249Z,69.66
2023-01-08T04:56:15.260Z,70.42
2023-01-08T04:57:15.253Z,70.61
2023-01-08T04:58:15.272Z,70.61
2023-01-08T04:59:15.267Z,70.61
2023-01-08T05:00:15.277Z,70.04
2023-01-08T05:01:15.398Z,69.66
2023-01-08T05:02:15.635Z,70.14
2023-01-08T05:03:15.355Z,69.95
2023-01-08T05:04:15.300Z,69.47
2023-01-08T05:05:15.300Z,69.47
2023-01-08T05:06:15.307Z,69.47
2023-01-08T05:07:15.312Z,69.47
2023-01-08T05:08:15.316Z,69.57
2023-01-08T05:09:15.320Z,69.57
2023-01-08T05:10:15.329Z,70.70
2023-01-08T05:11:15.340Z,70.70
2023-01-08T05:12:15.342Z,70.98
2023-01-08T05:13:15.343Z,71.17
2023-01-08T05:14:15.351Z,71.36
2023-01-08T05:15:15.355Z,71.46
2023-01-08T05:16:15.454Z,71.36
2023-01-08T05:17:15.374Z,71.65
2023-01-08T05:18:15.484Z,71.93
2023-01-08T05:19:15.376Z,71.65
2023-01-08T05:20:15.503Z,71.55
2023-01-08T05:21:15.398Z,72.12
2023-01-08T05:22:15.394Z,71.65
2023-01-08T05:23:15.396Z,71.93
2023-01-08T05:24:15.412Z,71.65
2023-01-08T05:25:15.409Z,71.93
2023-01-08T05:26:15.423Z,71.46
2023-01-08T05:27:15.422Z,71.46
2023-01-08T05:28:15.430Z,71.74
2023-01-08T05:29:15.432Z,72.12
2023-01-08T05:30:15.442Z,72.50
2023-01-08T05:31:15.531Z,72.50
2023-01-08T05:32:15.450Z,72.03
2023-01-08T05:33:15.455Z,71.36
2023-01-08T05:34:15.484Z,70.79
2023-01-08T05:35:15.470Z,71.08
2023-01-08T05:36:15.475Z,71.08
2023-01-08T05:37:15.475Z,70.79
2023-01-08T05:38:15.486Z,70.42
2023-01-08T05:39:15.505Z,70.42
2023-01-08T05:40:15.512Z,70.23
2023-01-08T05:41:15.500Z,69.95
2023-01-08T05:42:15.510Z,69.76
2023-01-08T05:43:15.511Z,69.85
2023-01-08T05:44:15.521Z,69.85
2023-01-08T05:45:15.545Z,69.76
2023-01-08T05:46:15.615Z,69.76
2023-01-08T05:47:15.540Z,70.14
2023-01-08T05:48:15.548Z,70.32
2023-01-08T05:49:16.931Z,70.79
2023-01-08T05:50:15.684Z,70.89
2023-01-08T05:51:15.556Z,71.17
2023-01-08T05:52:15.565Z,71.36
2023-01-08T05:53:15.565Z,71.27
2023-01-08T05:54:15.575Z,71.74
2023-01-08T05:55:15.578Z,72.41
2023-01-08T05:56:15.585Z,72.97
2023-01-08T05:57:15.596Z,72.60
2023-01-08T05:58:15.598Z,72.50
2023-01-08T05:59:15.606Z,72.12
2023-01-08T06:00:15.609Z,72.31
2023-01-08T06:01:15.727Z,72.03
2023-01-08T06:02:15.620Z,72.50
2023-01-08T06:03:15.636Z,72.41
2023-01-08T06:04:15.695Z,71.84
2023-01-08T06:05:15.768Z,71.65
2023-01-08T06:06:15.752Z,72.12
2023-01-08T06:07:15.663Z,71.65
2023-01-08T06:08:15.660Z,71.46
2023-01-08T06:09:15.656Z,71.46
2023-01-08T06:10:15.666Z,71.55
2023-01-08T06:11:15.669Z,71.46
2023-01-08T06:12:15.677Z,71.55
2023-01-08T06:13:15.688Z,71.93
2023-01-08T06:14:15.696Z,71.93
2023-01-08T06:15:15.696Z,72.03
2023-01-08T06:16:15.738Z,73.73
2023-01-08T06:17:15.699Z,72.88
2023-01-08T06:18:15.711Z,72.69
2023-01-08T06:19:15.711Z,72.03
2023-01-08T06:20:15.727Z,72.31
2023-01-08T06:21:15.740Z,72.31
2023-01-08T06:22:15.853Z,71.74
2023-01-08T06:23:15.735Z,71.84
2023-01-08T06:24:15.745Z,71.46
2023-01-08T06:25:15.754Z,71.46
2023-01-08T06:26:15.753Z,71.46
2023-01-08T06:27:15.857Z,72.12
2023-01-08T06:28:15.789Z,71.36
2023-01-08T06:29:15.868Z,71.17
2023-01-08T06:30:15.772Z,71.55
2023-01-08T06:31:15.840Z,71.93
2023-01-08T06:32:15.792Z,72.03
2023-01-08T06:33:15.802Z,72.88
2023-01-08T06:34:15.796Z,72.88
2023-01-08T06:35:15.817Z,73.26
2023-01-08T06:36:15.805Z,72.88
2023-01-08T06:37:15.816Z,72.97
2023-01-08T06:38:15.949Z,73.07
2023-01-08T06:39:15.822Z,72.97
2023-01-08T06:40:15.851Z,74.02
2023-01-08T06:41:15.839Z,74.11
2023-01-08T06:42:15.843Z,74.30
2023-01-08T06:43:15.853Z,73.73
2023-01-08T06:44:15.868Z,74.11
2023-01-08T06:45:15.857Z,74.11
2023-01-08T06:46:15.889Z,74.21
2023-01-08T06:47:15.866Z,74.11
2023-01-08T06:48:15.894Z,74.30
2023-01-08T06:49:15.878Z,74.58
2023-01-08T06:50:15.885Z,74.49
2023-01-08T06:51:15.888Z,74.77
2023-01-08T06:52:15.901Z,74.40
2023-01-08T06:53:15.905Z,74.96
2023-01-08T06:54:16.019Z,74.30
2023-01-08T06:55:15.913Z,74.11
2023-01-08T06:56:15.925Z,74.58
2023-01-08T06:57:15.923Z,74.21
2023-01-08T06:58:15.941Z,73.92
2023-01-08T06:59:15.933Z,73.92
2023-01-08T07:00:15.975Z,73.92
2023-01-08T07:01:16.272Z,73.73
2023-01-08T07:02:16.259Z,73.64
2023-01-08T07:03:16.025Z,74.11
2023-01-08T07:04:15.995Z,74.30
2023-01-08T07:05:15.969Z,74.30
2023-01-08T07:06:15.982Z,75.05
2023-01-08T07:07:15.984Z,74.68
2023-01-08T07:08:15.989Z,74.58
2023-01-08T07:09:15.999Z,74.11
2023-01-08T07:10:17.465Z,74.30
2023-01-08T07:11:15.998Z,74.02
2023-01-08T07:12:16.009Z,73.54
2023-01-08T07:13:16.010Z,74.30
2023-01-08T07:14:16.036Z,74.49
2023-01-08T07:15:16.043Z,74.49
2023-01-08T07:16:16.190Z,74.30
2023-01-08T07:17:16.034Z,73.92
2023-01-08T07:18:16.042Z,74.30
2023-01-08T07:19:16.049Z,74.30
2023-01-08T07:20:16.056Z,74.30
2023-01-08T07:21:16.056Z,74.30
2023-01-08T07:22:16.062Z,74.77
2023-01-08T07:23:16.066Z,74.68
2023-01-08T07:24:16.077Z,74.30
2023-01-08T07:25:16.089Z,74.02
2023-01-08T07:26:16.203Z,74.02
2023-01-08T07:27:16.087Z,74.11
2023-01-08T07:28:16.109Z,73.92
2023-01-08T07:29:16.103Z,73.73
2023-01-08T07:30:28.934Z,73.83
2023-01-08T07:31:16.182Z,73.83
2023-01-08T07:32:16.120Z,73.73
2023-01-08T07:33:16.122Z,73.83
2023-01-08T07:34:16.137Z,73.73
2023-01-08T07:35:16.135Z,74.30
2023-01-08T07:36:16.142Z,73.83
2023-01-08T07:37:16.144Z,73.92
2023-01-08T07:38:16.155Z,74.02
2023-01-08T07:39:16.159Z,73.92
2023-01-08T07:40:16.186Z,73.83
2023-01-08T07:41:16.167Z,74.11
2023-01-08T07:42:16.299Z,73.92
2023-01-08T07:43:16.190Z,74.02
2023-01-08T07:44:16.196Z,74.02
2023-01-08T07:45:16.197Z,74.02
2023-01-08T07:46:16.259Z,73.83
2023-01-08T07:47:16.200Z,74.40
2023-01-08T07:48:16.212Z,78.18
2023-01-08T07:49:16.213Z,79.69
2023-01-08T07:50:16.221Z,82.34
2023-01-08T07:51:16.223Z,84.81
2023-01-08T07:52:16.239Z,86.85
2023-01-08T07:53:16.237Z,89.40
2023-01-08T07:54:16.243Z,90.16
2023-01-08T07:55:16.248Z,91.77
2023-01-08T07:56:16.258Z,92.05
2023-01-08T07:57:16.269Z,92.43
2023-01-08T07:58:16.387Z,92.71
2023-01-08T07:59:16.301Z,93.66
2023-01-08T08:00:16.274Z,95.17
2023-01-08T08:01:16.319Z,97.25
2023-01-08T08:02:16.406Z,97.82
2023-01-08T08:03:16.359Z,98.58
2023-01-08T08:04:16.302Z,99.99
2023-01-08T08:05:16.302Z,99.99
2023-01-08T08:06:16.307Z,99.99
2023-01-08T08:07:16.342Z,99.99
2023-01-08T08:08:16.323Z,99.99
2023-01-08T08:09:16.323Z,99.99
2023-01-08T08:10:16.328Z,99.99
2023-01-08T08:11:16.345Z,99.99
2023-01-08T08:12:16.339Z,99.99
2023-01-08T08:13:16.355Z,99.99
2023-01-08T08:14:16.467Z,99.99
2023-01-08T08:15:16.365Z,99.99
2023-01-08T08:16:16.404Z,99.99
2023-01-08T08:17:16.367Z,99.99
2023-01-08T08:18:16.372Z,99.99
2023-01-08T08:19:16.400Z,99.99
2023-01-08T08:20:16.414Z,99.99
2023-01-08T08:21:16.389Z,99.99
2023-01-08T08:22:16.394Z,99.99
2023-01-08T08:23:16.391Z,99.99
2023-01-08T08:24:16.406Z,99.99
2023-01-08T08:25:16.401Z,99.99
2023-01-08T08:26:16.424Z,99.99
2023-01-08T08:27:16.414Z,99.99
2023-01-08T08:28:16.421Z,99.99
2023-01-08T08:29:16.423Z,99.99
2023-01-08T08:30:16.553Z,99.99
2023-01-08T08:31:16.510Z,99.99
2023-01-08T08:32:16.435Z,99.99
2023-01-08T08:33:16.452Z,99.99
2023-01-08T08:34:16.447Z,99.99
2023-01-08T08:35:16.456Z,99.99
2023-01-08T08:36:16.463Z,99.99
2023-01-08T08:37:16.469Z,99.99
2023-01-08T08:38:16.466Z,99.99
2023-01-08T08:39:16.477Z,99.99
2023-01-08T08:40:16.480Z,99.99
2023-01-08T08:41:16.485Z,99.99
2023-01-08T08:42:16.487Z,99.99
2023-01-08T08:43:16.525Z,99.99
2023-01-08T08:44:16.514Z,99.99
2023-01-08T08:45:16.520Z,99.99
2023-01-08T08:46:16.676Z,99.99
2023-01-08T08:47:16.514Z,99.99
2023-01-08T08:48:16.516Z,99.99
2023-01-08T08:49:16.523Z,99.99
2023-01-08T08:50:16.536Z,99.99
2023-01-08T08:51:16.531Z,99.99
2023-01-08T08:52:16.534Z,99.99
2023-01-08T08:53:16.546Z,99.99
2023-01-08T08:54:16.542Z,99.99
2023-01-08T08:55:16.552Z,99.99
2023-01-08T08:56:16.552Z,99.99
2023-01-08T08:57:16.561Z,99.99
2023-01-08T08:58:16.565Z,99.99
2023-01-08T08:59:16.573Z,99.99
2023-01-08T09:00:16.600Z,99.99
2023-01-08T09:01:16.658Z,99.99
2023-01-08T09:02:17.024Z,99.99
2023-01-08T09:03:16.715Z,99.99
2023-01-08T09:04:16.592Z,99.99
2023-01-08T09:05:16.599Z,99.99
2023-01-08T09:06:16.599Z,99.99
2023-01-08T09:07:16.607Z,99.99
2023-01-08T09:08:16.637Z,99.99
2023-01-08T09:09:16.621Z,99.99
2023-01-08T09:10:16.648Z,99.99
2023-01-08T09:11:16.623Z,99.99
2023-01-08T09:12:16.628Z,99.99
2023-01-08T09:13:16.638Z,99.99
2023-01-08T09:14:16.634Z,99.99
2023-01-08T09:15:16.651Z,99.99
2023-01-08T09:16:16.723Z,99.99
2023-01-08T09:17:16.650Z,99.99
2023-01-08T09:18:16.764Z,99.99
2023-01-08T09:19:16.661Z,99.99
2023-01-08T09:20:16.683Z,99.99
2023-01-08T09:21:16.691Z,99.99
2023-01-08T09:22:16.685Z,99.99
2023-01-08T09:23:16.680Z,99.99
2023-01-08T09:24:16.684Z,99.99
2023-01-08T09:25:16.689Z,99.99
2023-01-08T09:26:16.685Z,99.99
2023-01-08T09:27:16.697Z,99.99
2023-01-08T09:28:16.693Z,99.99
2023-01-08T09:29:16.703Z,99.99
2023-01-08T09:30:16.703Z,99.99
2023-01-08T09:31:16.875Z,99.99
2023-01-08T09:32:16.715Z,99.99
2023-01-08T09:33:16.723Z,99.99
2023-01-08T09:34:16.837Z,99.99
2023-01-08T09:35:16.752Z,99.99
2023-01-08T09:36:16.741Z,99.99
2023-01-08T09:37:16.740Z,99.99
2023-01-08T09:38:16.751Z,99.99
2023-01-08T09:39:16.762Z,99.99
2023-01-08T09:40:16.746Z,99.99
2023-01-08T09:41:16.769Z,99.99
2023-01-08T09:42:16.764Z,99.99
2023-01-08T09:43:16.804Z,99.99
2023-01-08T09:44:16.780Z,99.99
2023-01-08T09:45:16.786Z,99.99
2023-01-08T09:46:16.839Z,99.99
2023-01-08T09:47:16.792Z,99.99
2023-01-08T09:48:16.810Z,99.99
2023-01-08T09:49:16.812Z,99.99
2023-01-08T09:50:16.911Z,99.99
2023-01-08T09:51:16.820Z,99.99
2023-01-08T09:52:16.806Z,99.99
2023-01-08T09:53:16.824Z,99.99
2023-01-08T09:54:16.813Z,99.99
2023-01-08T09:55:16.819Z,99.99
2023-01-08T09:56:16.826Z,99.99
2023-01-08T09:57:16.830Z,99.99
2023-01-08T09:58:16.835Z,99.99
2023-01-08T09:59:16.850Z,99.99
2023-01-08T10:00:16.842Z,99.99
2023-01-08T10:01:17.069Z,99.99
2023-01-08T10:02:17.009Z,99.99
2023-01-08T10:03:16.859Z,99.99
2023-01-08T10:04:16.863Z,99.99
2023-01-08T10:05:16.883Z,99.99
2023-01-08T10:06:17.005Z,99.99
2023-01-08T10:07:16.878Z,99.99
2023-01-08T10:08:16.881Z,99.99
2023-01-08T10:09:16.895Z,99.99
2023-01-08T10:10:16.890Z,99.99
2023-01-08T10:11:16.897Z,99.99
2023-01-08T10:12:16.899Z,99.99
2023-01-08T10:13:16.913Z,99.99
2023-01-08T10:14:16.913Z,99.99
2023-01-08T10:15:16.914Z,99.99
2023-01-08T10:16:16.934Z,99.99
2023-01-08T10:17:16.932Z,99.99
2023-01-08T10:18:16.929Z,99.99
2023-01-08T10:19:16.936Z,99.99
2023-01-08T10:20:16.942Z,99.99
2023-01-08T10:21:16.949Z,99.99
2023-01-08T10:22:16.993Z,99.99
2023-01-08T10:23:16.967Z,99.99
2023-01-08T10:24:16.968Z,99.99
2023-01-08T10:25:16.973Z,99.99
2023-01-08T10:26:16.968Z,99.99
2023-01-08T10:27:16.984Z,99.99
2023-01-08T10:28:16.979Z,99.99
2023-01-08T10:29:16.997Z,99.99
2023-01-08T10:30:16.996Z,99.99
2023-01-08T10:31:17.096Z,99.99
2023-01-08T10:32:17.012Z,99.99
2023-01-08T10:33:17.010Z,99.99
2023-01-08T10:34:17.016Z,99.99
2023-01-08T10:35:17.020Z,99.99
2023-01-08T10:36:17.017Z,99.99
2023-01-08T10:37:17.024Z,99.99
2023-01-08T10:38:17.140Z,99.99
2023-01-08T10:39:17.038Z,99.99
2023-01-08T10:40:17.039Z,99.99
2023-01-08T10:41:17.059Z,99.99
2023-01-08T10:42:17.068Z,99.99
2023-01-08T10:43:17.079Z,99.99
2023-01-08T10:44:17.060Z,99.99
2023-01-08T10:45:17.068Z,99.99
2023-01-08T10:46:17.074Z,99.99
2023-01-08T10:47:17.079Z,99.99
2023-01-08T10:48:17.086Z,99.99
2023-01-08T10:49:17.086Z,99.99
2023-01-08T10:50:17.092Z,99.99
2023-01-08T10:51:17.104Z,99.99
2023-01-08T10:52:17.106Z,99.99
2023-01-08T10:53:17.116Z,99.99
2023-01-08T10:54:17.127Z,99.99
2023-01-08T10:55:17.118Z,99.99
2023-01-08T10:56:17.119Z,99.99
2023-01-08T10:57:17.130Z,99.99
2023-01-08T10:58:17.126Z,99.99
2023-01-08T10:59:17.137Z,99.99
2023-01-08T11:00:17.139Z,99.99
2023-01-08T11:01:17.391Z,99.99
2023-01-08T11:02:17.212Z,99.99
2023-01-08T11:03:17.156Z,99.99
2023-01-08T11:04:17.158Z,99.99
2023-01-08T11:05:17.176Z,99.99
2023-01-08T11:06:17.185Z,99.99
2023-01-08T11:07:17.177Z,99.99
2023-01-08T11:08:17.180Z,99.99
2023-01-08T11:09:17.203Z,99.99
2023-01-08T11:10:18.232Z,99.99
2023-01-08T11:11:17.199Z,99.99
2023-01-08T11:12:17.213Z,99.99
2023-01-08T11:13:17.212Z,99.99
2023-01-08T11:14:17.218Z,99.99
2023-01-08T11:15:17.219Z,99.99
2023-01-08T11:16:17.292Z,99.99
2023-01-08T11:17:17.232Z,99.99
2023-01-08T11:18:17.239Z,99.99
2023-01-08T11:19:17.859Z,99.99
2023-01-08T11:20:17.242Z,99.99
2023-01-08T11:21:17.251Z,99.99
2023-01-08T11:22:17.253Z,99.99
2023-01-08T11:23:17.267Z,99.99
2023-01-08T11:24:17.273Z,99.99
2023-01-08T11:25:17.273Z,99.99
2023-01-08T11:26:17.323Z,99.99
2023-01-08T11:27:17.283Z,99.99
2023-01-08T11:28:17.294Z,99.99
2023-01-08T11:29:17.306Z,99.99
2023-01-08T11:30:17.300Z,99.99
2023-01-08T11:31:17.359Z,99.99
2023-01-08T11:32:17.314Z,99.99
2023-01-08T11:33:17.324Z,99.99
2023-01-08T11:34:17.334Z,99.99
2023-01-08T11:35:17.372Z,99.99
2023-01-08T11:36:17.336Z,99.99
2023-01-08T11:37:17.348Z,99.99
2023-01-08T11:38:17.354Z,99.99
2023-01-08T11:39:17.362Z,99.99
2023-01-08T11:40:17.359Z,99.99
2023-01-08T11:41:17.369Z,99.99
2023-01-08T11:42:17.396Z,99.99
2023-01-08T11:43:17.404Z,99.99
2023-01-08T11:44:17.377Z,99.99
2023-01-08T11:45:17.399Z,99.99
2023-01-08T11:46:17.397Z,99.99
2023-01-08T11:47:17.409Z,99.99
2023-01-08T11:48:17.414Z,99.99
2023-01-08T11:49:17.432Z,99.99
2023-01-08T11:50:17.512Z,99.99
2023-01-08T11:51:17.431Z,99.99
2023-01-08T11:52:17.440Z,99.99
2023-01-08T11:53:17.465Z,99.99
2023-01-08T11:54:17.439Z,99.99
2023-01-08T11:55:17.455Z,99.99
2023-01-08T11:56:17.464Z,99.99
2023-01-08T11:57:17.470Z,99.99
2023-01-08T11:58:17.489Z,99.99
2023-01-08T11:59:17.473Z,99.99
2023-01-08T12:00:17.482Z,99.99
2023-01-08T12:01:17.539Z,99.99
2023-01-08T12:02:17.563Z,99.99
2023-01-08T12:03:17.577Z,99.99
2023-01-08T12:04:17.511Z,99.99
2023-01-08T12:05:17.517Z,99.99
2023-01-08T12:06:17.523Z,99.99
2023-01-08T12:07:17.530Z,99.99
2023-01-08T12:08:17.530Z,99.99
2023-01-08T12:09:17.550Z,99.99
2023-01-08T12:10:17.639Z,99.99
2023-01-08T12:11:17.566Z,99.99
2023-01-08T12:12:17.556Z,99.99
2023-01-08T12:13:17.568Z,99.99
2023-01-08T12:14:17.611Z,99.99
2023-01-08T12:15:17.585Z,99.99
2023-01-08T12:16:17.618Z,99.99
2023-01-08T12:17:17.605Z,99.99
2023-01-08T12:18:17.592Z,99.99
2023-01-08T12:19:17.605Z,99.99
2023-01-08T12:20:17.690Z,99.99
2023-01-08T12:21:17.620Z,99.99
2023-01-08T12:22:17.619Z,99.99
2023-01-08T12:23:17.626Z,99.99
2023-01-08T12:24:17.641Z,99.99
2023-01-08T12:25:17.658Z,99.99
2023-01-08T12:26:17.646Z,99.99
2023-01-08T12:27:17.667Z,99.99
2023-01-08T12:28:17.661Z,99.99
2023-01-08T12:29:17.671Z,99.99
2023-01-08T12:30:17.745Z,99.99
2023-01-08T12:31:17.725Z,99.99
2023-01-08T12:32:17.778Z,99.99
2023-01-08T12:33:17.704Z,99.99
2023-01-08T12:34:17.730Z,99.99
2023-01-08T12:35:17.712Z,99.99
2023-01-08T12:36:17.712Z,99.01
2023-01-08T12:37:17.721Z,99.67
2023-01-08T12:38:17.723Z,99.99
2023-01-08T12:39:17.735Z,99.96
2023-01-08T12:40:17.843Z,98.44
2023-01-08T12:41:17.750Z,99.99
2023-01-08T12:42:17.752Z,99.99
2023-01-08T12:43:17.763Z,99.99
2023-01-08T12:44:17.765Z,99.99
2023-01-08T12:45:17.782Z,99.99
2023-01-08T12:46:17.888Z,99.99
2023-01-08T12:47:17.793Z,99.99
2023-01-08T12:48:17.802Z,99.99
2023-01-08T12:49:17.800Z,99.99
2023-01-08T12:50:17.809Z,99.99
2023-01-08T12:51:17.819Z,98.54
2023-01-08T12:52:17.929Z,99.99